KLDM/LDM METAR and TAF weather

Enter ICAO airport designator
Station Type Date Time Source
KLDM METAR 2019/12/13 16:56 UTC NOAA

KLDM 131656Z AUTO 31003KT 7SM OVC012 03/01 A2991 RMK AO2 T00280006


Station Type Date Time Source
KLDM Decoded METAR 2019/12/13 16:56 UTC NOAA

Ludington, Mason County Airport, MI, United States (KLDM) 43-58N 86-24W
Dec 13, 2019 - 11:56 AM EST / 2019.12.13 1656 UTC
Wind: from the NW (310 degrees) at 3 MPH (3 KT):0
Visibility: 7 mile(s):0
Sky conditions: overcast
Temperature: 37.0 F (2.8 C)
Dew Point: 33.1 F (0.6 C)
Relative Humidity: 85%
Pressure (altimeter): 29.91 in. Hg (1012 hPa)
ob: KLDM 131656Z AUTO 31003KT 7SM OVC012 03/01 A2991 RMK AO2 T00280006
cycle: 17

Station Type Date Time Source
KLDM TAF UTC NOAA

Error!

Example: see airport list